Hauptseite
METAR-TAF:

METAR-TAF

Flughäfen :

Aigen im Ennstal, Österreich

Breite: 47-32N, Länge: 014-08E, Höhe: 638 m

METAR: fehlend

Zeit: 08:42 (07:42 UTC)

Prognose

Neuester Wetterbericht von vor 1 Stunde und 27 Minuten, um 06:15 UTC
Gültige Prognose vom 01 um 06 UTC bis 01 um 15 UTC
Wind 3 kt aus unterschiedlichen Richtungen
Sichtweite 10 km oder mehr
Himmel klar
Zeitweise
vom 01 um 11 UTC bis 01 um 15 UTC
Wind 7 kt aus Ost/Nordost

TAF: LOXA 010615Z 0106/0115 VRB03KT 9999 SKC TEMPO 0111/0115 06007KT

Wetterbeobachtungen und Prognosen von mehr als 4000 Flughäfen (METAR und TAF Bericht).

Die verfügbaren Stationen werden durch gelbe und rote Markierungen auf der Karte dargestellt.

Führen Sie die Maus auf sie, um den Namen der Station zu sehen.

Darauf klicken, um die Beobachtung von Wetterbeobachtungen und Prognosen zu sehen.

Um die Karte zu ändern : klicken Sie auf den grünen Tasten mit einem schwarzen Kreuz Zum Vergrößern, auf den grünen Button mit einem Gedankenstrich zu verkleinern, oder auf die grünen Pfeile für benachbarte Karten.


METAR-TAF: